sensor_id;sensor_type;location;lat;lon;timestamp;pressure;altitude;pressure_sealevel;temperature;humidity
22206;BME280;11272;50.104;8.754;2023-02-28T00:01:17;101743.44;;;1.95;51.11
22206;BME280;11272;50.104;8.754;2023-02-28T00:03:43;101740.78;;;1.94;50.80
22206;BME280;11272;50.104;8.754;2023-02-28T00:06:09;101745.97;;;1.92;51.05
22206;BME280;11272;50.104;8.754;2023-02-28T00:08:35;101744.06;;;1.88;51.25
22206;BME280;11272;50.104;8.754;2023-02-28T00:11:03;101743.97;;;1.85;51.31
22206;BME280;11272;50.104;8.754;2023-02-28T00:13:28;101740.41;;;1.83;51.61
22206;BME280;11272;50.104;8.754;2023-02-28T00:16:12;101746.44;;;1.81;51.53
22206;BME280;11272;50.104;8.754;2023-02-28T00:18:38;101739.34;;;1.78;51.64
22206;BME280;11272;50.104;8.754;2023-02-28T00:21:05;101739.25;;;1.75;51.87
22206;BME280;11272;50.104;8.754;2023-02-28T00:23:31;101741.75;;;1.72;51.93
22206;BME280;11272;50.104;8.754;2023-02-28T00:25:57;101748.63;;;1.68;52.09
22206;BME280;11272;50.104;8.754;2023-02-28T00:28:28;101748.50;;;1.65;52.40
22206;BME280;11272;50.104;8.754;2023-02-28T00:30:54;101746.56;;;1.60;52.52
22206;BME280;11272;50.104;8.754;2023-02-28T00:33:19;101752.50;;;1.56;52.58
22206;BME280;11272;50.104;8.754;2023-02-28T00:35:46;101754.13;;;1.52;52.85
22206;BME280;11272;50.104;8.754;2023-02-28T00:38:16;101753.06;;;1.47;52.97
22206;BME280;11272;50.104;8.754;2023-02-28T00:40:42;101759.03;;;1.43;52.95
22206;BME280;11272;50.104;8.754;2023-02-28T00:43:10;101751.88;;;1.39;52.96
22206;BME280;11272;50.104;8.754;2023-02-28T00:45:36;101750.91;;;1.36;53.27
22206;BME280;11272;50.104;8.754;2023-02-28T00:48:04;101746.56;;;1.36;53.45
22206;BME280;11272;50.104;8.754;2023-02-28T00:50:30;101744.69;;;1.34;53.59
22206;BME280;11272;50.104;8.754;2023-02-28T00:52:56;101749.09;;;1.35;53.43
22206;BME280;11272;50.104;8.754;2023-02-28T00:55:22;101754.47;;;1.38;53.74
22206;BME280;11272;50.104;8.754;2023-02-28T00:57:47;101743.09;;;1.37;53.62
22206;BME280;11272;50.104;8.754;2023-02-28T01:00:14;101749.16;;;1.36;53.96
22206;BME280;11272;50.104;8.754;2023-02-28T01:02:40;101755.22;;;1.35;53.88
22206;BME280;11272;50.104;8.754;2023-02-28T01:05:07;101751.69;;;1.33;54.11
22206;BME280;11272;50.104;8.754;2023-02-28T01:07:33;101744.53;;;1.29;54.19
22206;BME280;11272;50.104;8.754;2023-02-28T01:09:59;101747.94;;;1.26;54.50
22206;BME280;11272;50.104;8.754;2023-02-28T01:12:26;101749.53;;;1.23;54.63
22206;BME280;11272;50.104;8.754;2023-02-28T01:14:51;101751.16;;;1.19;54.78
22206;BME280;11272;50.104;8.754;2023-02-28T01:17:17;101742.31;;;1.16;54.85
22206;BME280;11272;50.104;8.754;2023-02-28T01:19:43;101747.47;;;1.14;55.30
22206;BME280;11272;50.104;8.754;2023-02-28T01:22:09;101745.53;;;1.09;55.23
22206;BME280;11272;50.104;8.754;2023-02-28T01:24:34;101740.28;;;1.09;55.15
22206;BME280;11272;50.104;8.754;2023-02-28T01:27:00;101739.28;;;1.05;55.20
22206;BME280;11272;50.104;8.754;2023-02-28T01:29:26;101743.56;;;1.03;55.24
22206;BME280;11272;50.104;8.754;2023-02-28T01:31:52;101739.13;;;1.01;55.65
22206;BME280;11272;50.104;8.754;2023-02-28T01:34:17;101734.59;;;0.97;55.94
22206;BME280;11272;50.104;8.754;2023-02-28T01:36:45;101738.94;;;0.96;55.52
22206;BME280;11272;50.104;8.754;2023-02-28T01:39:11;101738.06;;;0.96;55.74
22206;BME280;11272;50.104;8.754;2023-02-28T01:41:38;101729.25;;;0.94;55.99
22206;BME280;11272;50.104;8.754;2023-02-28T01:44:53;101728.25;;;0.90;55.98
22206;BME280;11272;50.104;8.754;2023-02-28T01:46:53;101734.31;;;0.89;56.29
22206;BME280;11272;50.104;8.754;2023-02-28T01:49:19;101731.63;;;0.88;56.05
22206;BME280;11272;50.104;8.754;2023-02-28T01:51:47;101726.41;;;0.88;56.52
22206;BME280;11272;50.104;8.754;2023-02-28T01:54:41;101727.22;;;0.87;56.16
22206;BME280;11272;50.104;8.754;2023-02-28T01:57:11;101740.25;;;0.85;56.21
22206;BME280;11272;50.104;8.754;2023-02-28T02:00:20;101732.22;;;0.80;56.17
22206;BME280;11272;50.104;8.754;2023-02-28T02:02:43;101731.16;;;0.75;56.37
22206;BME280;11272;50.104;8.754;2023-02-28T02:05:15;101730.22;;;0.73;56.64
22206;BME280;11272;50.104;8.754;2023-02-28T02:07:46;101722.19;;;0.69;56.94
22206;BME280;11272;50.104;8.754;2023-02-28T02:10:29;101724.75;;;0.67;57.17
22206;BME280;11272;50.104;8.754;2023-02-28T02:18:33;101721.88;;;0.61;57.12
22206;BME280;11272;50.104;8.754;2023-02-28T02:35:04;101723.25;;;0.52;57.31
22206;BME280;11272;50.104;8.754;2023-02-28T02:40:30;101710.91;;;0.48;57.27
22206;BME280;11272;50.104;8.754;2023-02-28T02:43:04;101713.50;;;0.48;57.79
22206;BME280;11272;50.104;8.754;2023-02-28T02:45:46;101720.31;;;0.44;57.92
22206;BME280;11272;50.104;8.754;2023-02-28T02:48:17;101721.03;;;0.40;57.94
22206;BME280;11272;50.104;8.754;2023-02-28T02:50:50;101716.56;;;0.37;57.90
22206;BME280;11272;50.104;8.754;2023-02-28T02:53:18;101712.06;;;0.33;57.92
22206;BME280;11272;50.104;8.754;2023-02-28T02:55:48;101711.88;;;0.29;58.14
22206;BME280;11272;50.104;8.754;2023-02-28T02:58:23;101720.50;;;0.26;58.08
22206;BME280;11272;50.104;8.754;2023-02-28T03:00:53;101720.34;;;0.23;58.25
22206;BME280;11272;50.104;8.754;2023-02-28T03:03:21;101714.94;;;0.19;57.91
22206;BME280;11272;50.104;8.754;2023-02-28T03:05:59;101722.66;;;0.16;58.58
22206;BME280;11272;50.104;8.754;2023-02-28T03:08:34;101721.78;;;0.15;58.70
22206;BME280;11272;50.104;8.754;2023-02-28T03:11:04;101718.13;;;0.12;58.56
22206;BME280;11272;50.104;8.754;2023-02-28T03:16:29;101715.50;;;0.12;58.86
22206;BME280;11272;50.104;8.754;2023-02-28T03:22:03;101712.72;;;0.07;58.80
22206;BME280;11272;50.104;8.754;2023-02-28T03:30:36;101716.03;;;0.03;58.52
22206;BME280;11272;50.104;8.754;2023-02-28T03:33:10;101709.91;;;0.03;59.00
22206;BME280;11272;50.104;8.754;2023-02-28T03:36:12;101709.09;;;0.04;59.01
22206;BME280;11272;50.104;8.754;2023-02-28T03:38:48;101701.97;;;-0.01;58.84
22206;BME280;11272;50.104;8.754;2023-02-28T03:41:22;101702.78;;;-0.02;58.72
22206;BME280;11272;50.104;8.754;2023-02-28T03:43:55;101713.16;;;-0.03;59.17
22206;BME280;11272;50.104;8.754;2023-02-28T03:46:25;101706.22;;;-0.03;59.21
22206;BME280;11272;50.104;8.754;2023-02-28T03:49:18;101711.44;;;-0.03;59.02
22206;BME280;11272;50.104;8.754;2023-02-28T03:51:47;101703.63;;;-0.03;58.85
22206;BME280;11272;50.104;8.754;2023-02-28T03:54:19;101706.16;;;-0.04;58.87
22206;BME280;11272;50.104;8.754;2023-02-28T03:56:56;101708.84;;;-0.03;58.83
22206;BME280;11272;50.104;8.754;2023-02-28T03:59:30;101715.03;;;-0.01;59.30
22206;BME280;11272;50.104;8.754;2023-02-28T04:01:58;101707.19;;;-0.01;58.95
22206;BME280;11272;50.104;8.754;2023-02-28T04:04:25;101712.41;;;-0.01;59.30
22206;BME280;11272;50.104;8.754;2023-02-28T04:06:52;101710.63;;;-0.02;59.02
22206;BME280;11272;50.104;8.754;2023-02-28T04:09:18;101713.22;;;-0.02;59.17
22206;BME280;11272;50.104;8.754;2023-02-28T04:11:51;101714.94;;;-0.02;59.16
22206;BME280;11272;50.104;8.754;2023-02-28T04:14:18;101721.06;;;-0.02;59.08
22206;BME280;11272;50.104;8.754;2023-02-28T04:16:44;101720.25;;;-0.01;59.10
22206;BME280;11272;50.104;8.754;2023-02-28T04:19:11;101720.25;;;-0.01;58.91
22206;BME280;11272;50.104;8.754;2023-02-28T04:21:39;101724.59;;;0.00;58.95
22206;BME280;11272;50.104;8.754;2023-02-28T04:24:07;101725.56;;;0.03;59.02
22206;BME280;11272;50.104;8.754;2023-02-28T04:26:35;101717.81;;;0.04;59.15
22206;BME280;11272;50.104;8.754;2023-02-28T04:29:03;101721.31;;;0.05;58.98
22206;BME280;11272;50.104;8.754;2023-02-28T04:31:28;101724.03;;;0.08;59.10
22206;BME280;11272;50.104;8.754;2023-02-28T04:33:54;101725.94;;;0.12;58.77
22206;BME280;11272;50.104;8.754;2023-02-28T04:36:20;101720.91;;;0.16;58.83
22206;BME280;11272;50.104;8.754;2023-02-28T04:38:46;101723.75;;;0.21;59.02
22206;BME280;11272;50.104;8.754;2023-02-28T04:41:12;101721.25;;;0.24;58.91
22206;BME280;11272;50.104;8.754;2023-02-28T04:43:38;101722.25;;;0.27;58.73
22206;BME280;11272;50.104;8.754;2023-02-28T04:46:05;101718.06;;;0.31;58.64
22206;BME280;11272;50.104;8.754;2023-02-28T04:48:33;101713.84;;;0.34;58.74
22206;BME280;11272;50.104;8.754;2023-02-28T04:51:07;101708.78;;;0.39;58.83
22206;BME280;11272;50.104;8.754;2023-02-28T04:53:32;101708.88;;;0.40;58.62
22206;BME280;11272;50.104;8.754;2023-02-28T04:55:58;101713.25;;;0.41;58.42
22206;BME280;11272;50.104;8.754;2023-02-28T04:58:25;101707.97;;;0.40;58.31
22206;BME280;11272;50.104;8.754;2023-02-28T05:00:52;101714.91;;;0.39;58.64
22206;BME280;11272;50.104;8.754;2023-02-28T05:03:19;101707.00;;;0.38;58.36
22206;BME280;11272;50.104;8.754;2023-02-28T05:05:46;101714.72;;;0.35;58.46
22206;BME280;11272;50.104;8.754;2023-02-28T05:08:12;101711.16;;;0.33;58.35
22206;BME280;11272;50.104;8.754;2023-02-28T05:10:37;101718.00;;;0.29;58.30
22206;BME280;11272;50.104;8.754;2023-02-28T05:13:03;101716.97;;;0.26;58.41
22206;BME280;11272;50.104;8.754;2023-02-28T05:15:28;101721.13;;;0.21;58.36
22206;BME280;11272;50.104;8.754;2023-02-28T05:17:54;101718.28;;;0.16;58.65
22206;BME280;11272;50.104;8.754;2023-02-28T05:20:19;101718.25;;;0.15;58.69
22206;BME280;11272;50.104;8.754;2023-02-28T05:22:46;101724.22;;;0.12;58.70
22206;BME280;11272;50.104;8.754;2023-02-28T05:25:17;101721.50;;;0.09;58.47
22206;BME280;11272;50.104;8.754;2023-02-28T05:27:43;101737.19;;;0.09;58.46
22206;BME280;11272;50.104;8.754;2023-02-28T05:30:09;101728.44;;;0.09;58.40
22206;BME280;11272;50.104;8.754;2023-02-28T05:32:39;101729.28;;;0.08;58.81
22206;BME280;11272;50.104;8.754;2023-02-28T05:35:09;101723.94;;;0.05;58.87
22206;BME280;11272;50.104;8.754;2023-02-28T05:37:35;101727.22;;;0.00;58.70
22206;BME280;11272;50.104;8.754;2023-02-28T05:40:01;101733.34;;;0.01;58.96
22206;BME280;11272;50.104;8.754;2023-02-28T05:42:26;101736.84;;;0.02;58.68
22206;BME280;11272;50.104;8.754;2023-02-28T05:44:52;101734.22;;;0.02;58.90
22206;BME280;11272;50.104;8.754;2023-02-28T05:47:19;101740.34;;;0.02;58.90
22206;BME280;11272;50.104;8.754;2023-02-28T05:49:44;101740.28;;;0.00;59.05
22206;BME280;11272;50.104;8.754;2023-02-28T05:52:10;101734.22;;;0.02;58.86
22206;BME280;11272;50.104;8.754;2023-02-28T05:54:35;101738.69;;;0.04;59.03
22206;BME280;11272;50.104;8.754;2023-02-28T05:57:01;101734.38;;;0.05;58.84
22206;BME280;11272;50.104;8.754;2023-02-28T05:59:27;101737.91;;;0.07;58.93
22206;BME280;11272;50.104;8.754;2023-02-28T06:01:52;101730.91;;;0.06;59.28
22206;BME280;11272;50.104;8.754;2023-02-28T06:04:20;101737.88;;;0.05;58.79
22206;BME280;11272;50.104;8.754;2023-02-28T06:06:47;101736.91;;;0.03;59.04
22206;BME280;11272;50.104;8.754;2023-02-28T06:09:13;101744.75;;;0.03;59.25
22206;BME280;11272;50.104;8.754;2023-02-28T06:11:40;101745.50;;;0.00;59.26
22206;BME280;11272;50.104;8.754;2023-02-28T06:14:06;101748.00;;;-0.03;59.23
22206;BME280;11272;50.104;8.754;2023-02-28T06:16:34;101739.16;;;-0.06;59.30
22206;BME280;11272;50.104;8.754;2023-02-28T06:19:02;101747.03;;;-0.05;58.97
22206;BME280;11272;50.104;8.754;2023-02-28T06:21:28;101747.91;;;-0.04;59.05
22206;BME280;11272;50.104;8.754;2023-02-28T06:23:55;101754.84;;;-0.05;58.97
22206;BME280;11272;50.104;8.754;2023-02-28T06:26:21;101755.72;;;-0.06;58.79
22206;BME280;11272;50.104;8.754;2023-02-28T06:28:47;101751.31;;;-0.07;59.07
22206;BME280;11272;50.104;8.754;2023-02-28T06:31:15;101760.06;;;-0.05;59.10
22206;BME280;11272;50.104;8.754;2023-02-28T06:33:44;101759.31;;;-0.02;59.17
22206;BME280;11272;50.104;8.754;2023-02-28T06:36:11;101759.53;;;0.03;59.01
22206;BME280;11272;50.104;8.754;2023-02-28T06:38:38;101764.03;;;0.07;59.20
22206;BME280;11272;50.104;8.754;2023-02-28T06:41:05;101762.41;;;0.09;59.19
22206;BME280;11272;50.104;8.754;2023-02-28T06:43:34;101771.19;;;0.11;58.81
22206;BME280;11272;50.104;8.754;2023-02-28T06:46:02;101768.63;;;0.12;59.01
22206;BME280;11272;50.104;8.754;2023-02-28T06:48:27;101766.09;;;0.14;58.75
22206;BME280;11272;50.104;8.754;2023-02-28T06:51:08;101772.31;;;0.17;59.02
22206;BME280;11272;50.104;8.754;2023-02-28T06:53:34;101773.34;;;0.21;58.94
22206;BME280;11272;50.104;8.754;2023-02-28T06:56:06;101775.25;;;0.25;58.62
22206;BME280;11272;50.104;8.754;2023-02-28T06:58:33;101779.78;;;0.29;58.55
22206;BME280;11272;50.104;8.754;2023-02-28T07:00:59;101779.06;;;0.33;58.61
22206;BME280;11272;50.104;8.754;2023-02-28T07:03:25;101777.69;;;0.41;58.51
22206;BME280;11272;50.104;8.754;2023-02-28T07:05:50;101783.09;;;0.46;58.58
22206;BME280;11272;50.104;8.754;2023-02-28T07:08:16;101783.34;;;0.52;58.37
22206;BME280;11272;50.104;8.754;2023-02-28T07:10:41;101777.56;;;0.59;57.99
22206;BME280;11272;50.104;8.754;2023-02-28T07:13:08;101782.09;;;0.64;58.03
22206;BME280;11272;50.104;8.754;2023-02-28T07:15:37;101783.22;;;0.69;58.04
22206;BME280;11272;50.104;8.754;2023-02-28T07:18:02;101773.94;;;0.77;57.86
22206;BME280;11272;50.104;8.754;2023-02-28T07:20:29;101776.06;;;0.88;57.81
22206;BME280;11272;50.104;8.754;2023-02-28T07:22:54;101782.50;;;0.96;57.96
22206;BME280;11272;50.104;8.754;2023-02-28T07:25:26;101781.06;;;1.04;57.45
22206;BME280;11272;50.104;8.754;2023-02-28T07:27:53;101781.31;;;1.10;57.45
22206;BME280;11272;50.104;8.754;2023-02-28T07:30:19;101774.63;;;1.18;57.43
22206;BME280;11272;50.104;8.754;2023-02-28T07:32:45;101779.28;;;1.25;57.21
22206;BME280;11272;50.104;8.754;2023-02-28T07:35:11;101780.41;;;1.32;57.05
22206;BME280;11272;50.104;8.754;2023-02-28T07:37:36;101775.41;;;1.38;56.74
22206;BME280;11272;50.104;8.754;2023-02-28T07:40:04;101775.63;;;1.44;56.62
22206;BME280;11272;50.104;8.754;2023-02-28T07:42:31;101774.19;;;1.52;56.66
22206;BME280;11272;50.104;8.754;2023-02-28T07:44:57;101781.34;;;1.57;56.59
22206;BME280;11272;50.104;8.754;2023-02-28T07:47:24;101775.53;;;1.64;56.18
22206;BME280;11272;50.104;8.754;2023-02-28T07:49:49;101775.75;;;1.71;56.29
22206;BME280;11272;50.104;8.754;2023-02-28T07:52:15;101785.66;;;1.79;55.76
22206;BME280;11272;50.104;8.754;2023-02-28T07:54:40;101793.72;;;1.85;55.97
22206;BME280;11272;50.104;8.754;2023-02-28T07:57:06;101787.81;;;1.91;55.66
22206;BME280;11272;50.104;8.754;2023-02-28T07:59:31;101776.69;;;1.98;55.51
22206;BME280;11272;50.104;8.754;2023-02-28T08:01:58;101784.91;;;2.07;55.42
22206;BME280;11272;50.104;8.754;2023-02-28T08:04:24;101789.50;;;2.14;55.13
22206;BME280;11272;50.104;8.754;2023-02-28T08:06:50;101798.53;;;2.22;55.22
22206;BME280;11272;50.104;8.754;2023-02-28T08:09:18;101790.03;;;2.29;54.83
22206;BME280;11272;50.104;8.754;2023-02-28T08:11:46;101798.19;;;2.38;54.71
22206;BME280;11272;50.104;8.754;2023-02-28T08:14:12;101796.78;;;2.48;54.78
22206;BME280;11272;50.104;8.754;2023-02-28T08:16:37;101788.47;;;2.61;54.76
22206;BME280;11272;50.104;8.754;2023-02-28T08:19:04;101781.19;;;2.79;54.45
22206;BME280;11272;50.104;8.754;2023-02-28T08:21:30;101789.59;;;2.96;53.73
22206;BME280;11272;50.104;8.754;2023-02-28T08:23:56;101784.63;;;3.33;54.14
22206;BME280;11272;50.104;8.754;2023-02-28T08:26:22;101774.72;;;4.17;54.07
22206;BME280;11272;50.104;8.754;2023-02-28T08:28:48;101776.78;;;5.02;53.84
22206;BME280;11272;50.104;8.754;2023-02-28T08:31:15;101774.91;;;5.76;53.24
22206;BME280;11272;50.104;8.754;2023-02-28T08:33:42;101769.19;;;6.48;52.45
22206;BME280;11272;50.104;8.754;2023-02-28T08:36:08;101767.66;;;7.19;51.26
22206;BME280;11272;50.104;8.754;2023-02-28T08:38:40;101768.44;;;7.79;49.90
22206;BME280;11272;50.104;8.754;2023-02-28T08:41:13;101760.97;;;8.26;48.60
22206;BME280;11272;50.104;8.754;2023-02-28T08:43:39;101769.38;;;8.74;47.85
22206;BME280;11272;50.104;8.754;2023-02-28T08:46:06;101758.16;;;9.13;46.32
22206;BME280;11272;50.104;8.754;2023-02-28T08:48:33;101761.03;;;9.63;45.82
22206;BME280;11272;50.104;8.754;2023-02-28T08:51:05;101753.19;;;10.04;44.96
22206;BME280;11272;50.104;8.754;2023-02-28T08:53:31;101766.56;;;10.59;43.99
22206;BME280;11272;50.104;8.754;2023-02-28T08:56:06;101751.50;;;10.76;42.85
22206;BME280;11272;50.104;8.754;2023-02-28T08:58:33;101756.81;;;10.94;41.54
22206;BME280;11272;50.104;8.754;2023-02-28T09:01:00;101756.75;;;11.19;40.78
22206;BME280;11272;50.104;8.754;2023-02-28T09:03:27;101747.81;;;11.41;39.66
22206;BME280;11272;50.104;8.754;2023-02-28T09:05:59;101744.25;;;11.48;38.85
22206;BME280;11272;50.104;8.754;2023-02-28T09:08:26;101751.28;;;11.60;38.06
22206;BME280;11272;50.104;8.754;2023-02-28T09:10:52;101749.47;;;11.78;38.31
22206;BME280;11272;50.104;8.754;2023-02-28T09:13:20;101743.94;;;12.09;37.29
22206;BME280;11272;50.104;8.754;2023-02-28T09:15:45;101737.69;;;12.14;36.48
22206;BME280;11272;50.104;8.754;2023-02-28T09:18:11;101743.03;;;12.16;36.14
22206;BME280;11272;50.104;8.754;2023-02-28T09:20:38;101733.94;;;12.43;35.89
22206;BME280;11272;50.104;8.754;2023-02-28T09:23:06;101734.50;;;12.81;35.35
22206;BME280;11272;50.104;8.754;2023-02-28T09:25:31;101744.13;;;12.94;34.68
22206;BME280;11272;50.104;8.754;2023-02-28T09:27:57;101730.78;;;12.94;34.37
22206;BME280;11272;50.104;8.754;2023-02-28T09:30:23;101736.75;;;13.22;34.19
22206;BME280;11272;50.104;8.754;2023-02-28T09:32:48;101730.66;;;13.08;32.90
22206;BME280;11272;50.104;8.754;2023-02-28T09:35:18;101728.75;;;12.28;32.63
22206;BME280;11272;50.104;8.754;2023-02-28T09:37:44;101720.75;;;12.28;33.18
22206;BME280;11272;50.104;8.754;2023-02-28T09:40:22;101722.66;;;12.12;32.89
22206;BME280;11272;50.104;8.754;2023-02-28T09:42:53;101736.22;;;11.57;32.49
22206;BME280;11272;50.104;8.754;2023-02-28T09:47:52;101729.38;;;10.77;33.11
22206;BME280;11272;50.104;8.754;2023-02-28T09:52:55;101726.69;;;10.07;33.19
22206;BME280;11272;50.104;8.754;2023-02-28T09:57:54;101744.09;;;9.26;33.87
22206;BME280;11272;50.104;8.754;2023-02-28T10:00:31;101740.41;;;9.00;34.54
22206;BME280;11272;50.104;8.754;2023-02-28T10:03:25;101748.41;;;9.06;34.07
22206;BME280;11272;50.104;8.754;2023-02-28T10:08:32;101729.38;;;10.83;34.76
22206;BME280;11272;50.104;8.754;2023-02-28T10:11:03;101731.09;;;11.03;33.54
22206;BME280;11272;50.104;8.754;2023-02-28T10:16:31;101738.25;;;10.67;33.01
22206;BME280;11272;50.104;8.754;2023-02-28T10:21:36;101735.56;;;10.22;33.12
22206;BME280;11272;50.104;8.754;2023-02-28T10:24:34;101738.13;;;9.90;33.11
22206;BME280;11272;50.104;8.754;2023-02-28T10:27:17;101733.63;;;9.55;32.76
22206;BME280;11272;50.104;8.754;2023-02-28T10:29:50;101740.53;;;9.23;33.56
22206;BME280;11272;50.104;8.754;2023-02-28T10:32:18;101739.56;;;9.03;34.09
22206;BME280;11272;50.104;8.754;2023-02-28T10:37:40;101741.94;;;8.68;33.98
22206;BME280;11272;50.104;8.754;2023-02-28T10:40:25;101738.34;;;8.57;34.03
22206;BME280;11272;50.104;8.754;2023-02-28T10:45:53;101731.28;;;8.54;34.19
22206;BME280;11272;50.104;8.754;2023-02-28T10:51:07;101731.28;;;8.54;34.06
22206;BME280;11272;50.104;8.754;2023-02-28T10:53:45;101721.66;;;8.68;34.21
22206;BME280;11272;50.104;8.754;2023-02-28T10:56:17;101728.28;;;9.48;34.40
22206;BME280;11272;50.104;8.754;2023-02-28T10:59:03;101726.69;;;10.12;34.39
22206;BME280;11272;50.104;8.754;2023-02-28T11:01:48;101738.22;;;10.38;33.63
22206;BME280;11272;50.104;8.754;2023-02-28T11:04:32;101724.06;;;10.68;33.44
22206;BME280;11272;50.104;8.754;2023-02-28T11:07:05;101718.72;;;10.80;32.74
22206;BME280;11272;50.104;8.754;2023-02-28T11:09:40;101709.88;;;10.83;31.98
22206;BME280;11272;50.104;8.754;2023-02-28T11:12:10;101716.94;;;10.90;32.29
22206;BME280;11272;50.104;8.754;2023-02-28T11:14:50;101703.31;;;11.76;32.33
22206;BME280;11272;50.104;8.754;2023-02-28T11:17:23;101705.22;;;12.72;32.06
22206;BME280;11272;50.104;8.754;2023-02-28T11:20:01;101706.19;;;13.51;31.30
22206;BME280;11272;50.104;8.754;2023-02-28T11:22:32;101689.94;;;14.24;30.46
22206;BME280;11272;50.104;8.754;2023-02-28T11:25:07;101682.56;;;15.33;30.35
22206;BME280;11272;50.104;8.754;2023-02-28T11:27:44;101693.88;;;16.27;29.45
22206;BME280;11272;50.104;8.754;2023-02-28T11:30:24;101687.63;;;16.62;28.57
22206;BME280;11272;50.104;8.754;2023-02-28T11:32:50;101682.63;;;16.82;27.57
22206;BME280;11272;50.104;8.754;2023-02-28T11:35:21;101690.63;;;17.16;27.00
22206;BME280;11272;50.104;8.754;2023-02-28T11:37:48;101689.34;;;16.99;26.29
22206;BME280;11272;50.104;8.754;2023-02-28T11:40:47;101691.91;;;16.69;26.38
22206;BME280;11272;50.104;8.754;2023-02-28T11:46:52;101669.88;;;16.91;26.15
22206;BME280;11272;50.104;8.754;2023-02-28T11:49:41;101673.47;;;16.90;26.17
22206;BME280;11272;50.104;8.754;2023-02-28T11:52:35;101672.13;;;16.73;25.76
22206;BME280;11272;50.104;8.754;2023-02-28T11:55:16;101667.03;;;16.97;25.81
22206;BME280;11272;50.104;8.754;2023-02-28T11:57:48;101674.19;;;17.27;25.28
22206;BME280;11272;50.104;8.754;2023-02-28T12:00:40;101663.47;;;17.56;25.13
22206;BME280;11272;50.104;8.754;2023-02-28T12:09:00;101669.41;;;17.97;24.40
22206;BME280;11272;50.104;8.754;2023-02-28T12:14:22;101664.13;;;17.94;23.70
22206;BME280;11272;50.104;8.754;2023-02-28T12:28:14;101658.66;;;18.23;23.11
22206;BME280;11272;50.104;8.754;2023-02-28T12:33:22;101652.25;;;17.73;23.00
22206;BME280;11272;50.104;8.754;2023-02-28T12:35:58;101656.56;;;17.79;22.83
22206;BME280;11272;50.104;8.754;2023-02-28T12:38:28;101642.47;;;17.71;22.76
22206;BME280;11272;50.104;8.754;2023-02-28T12:41:00;101648.06;;;17.91;22.78
22206;BME280;11272;50.104;8.754;2023-02-28T12:43:32;101643.03;;;18.08;22.72
22206;BME280;11272;50.104;8.754;2023-02-28T12:46:07;101635.31;;;18.50;22.56
22206;BME280;11272;50.104;8.754;2023-02-28T12:48:48;101638.09;;;18.98;22.54
22206;BME280;11272;50.104;8.754;2023-02-28T12:51:16;101648.16;;;19.41;22.00
22206;BME280;11272;50.104;8.754;2023-02-28T13:05:06;101628.41;;;18.94;22.19
22206;BME280;11272;50.104;8.754;2023-02-28T13:10:18;101635.91;;;18.33;21.72
22206;BME280;11272;50.104;8.754;2023-02-28T13:12:48;101636.75;;;18.09;22.12
22206;BME280;11272;50.104;8.754;2023-02-28T13:15:24;101627.94;;;18.30;22.00
22206;BME280;11272;50.104;8.754;2023-02-28T13:17:53;101631.50;;;18.59;21.77
22206;BME280;11272;50.104;8.754;2023-02-28T13:20:35;101625.56;;;18.47;21.87
22206;BME280;11272;50.104;8.754;2023-02-28T13:23:02;101625.88;;;18.38;21.90
22206;BME280;11272;50.104;8.754;2023-02-28T13:28:12;101630.41;;;17.54;22.19
22206;BME280;11272;50.104;8.754;2023-02-28T13:38:59;101637.03;;;15.76;23.87
22206;BME280;11272;50.104;8.754;2023-02-28T13:44:11;101621.31;;;15.20;24.20
22206;BME280;11272;50.104;8.754;2023-02-28T13:49:28;101629.78;;;14.98;24.32
22206;BME280;11272;50.104;8.754;2023-02-28T13:57:49;101629.03;;;15.35;24.50
22206;BME280;11272;50.104;8.754;2023-02-28T14:00:51;101615.59;;;15.36;24.39
22206;BME280;11272;50.104;8.754;2023-02-28T14:03:36;101626.88;;;15.10;24.40
22206;BME280;11272;50.104;8.754;2023-02-28T14:08:47;101621.22;;;14.81;24.71
22206;BME280;11272;50.104;8.754;2023-02-28T14:11:32;101628.94;;;14.52;24.87
22206;BME280;11272;50.104;8.754;2023-02-28T14:13:59;101620.41;;;14.28;25.45
22206;BME280;11272;50.104;8.754;2023-02-28T14:16:38;101619.00;;;14.06;25.22
22206;BME280;11272;50.104;8.754;2023-02-28T14:19:12;101619.34;;;13.85;25.58
22206;BME280;11272;50.104;8.754;2023-02-28T14:21:47;101617.72;;;13.75;25.67
22206;BME280;11272;50.104;8.754;2023-02-28T14:27:08;101617.47;;;13.32;26.05
22206;BME280;11272;50.104;8.754;2023-02-28T14:30:00;101617.84;;;13.01;26.46
22206;BME280;11272;50.104;8.754;2023-02-28T14:33:04;101621.06;;;12.51;26.91
22206;BME280;11272;50.104;8.754;2023-02-28T14:36:03;101614.31;;;12.17;27.23
22206;BME280;11272;50.104;8.754;2023-02-28T14:38:32;101616.22;;;12.00;27.62
22206;BME280;11272;50.104;8.754;2023-02-28T14:41:04;101617.19;;;11.90;28.12
22206;BME280;11272;50.104;8.754;2023-02-28T14:43:32;101613.78;;;11.68;28.12
22206;BME280;11272;50.104;8.754;2023-02-28T14:46:00;101611.06;;;11.72;28.40
22206;BME280;11272;50.104;8.754;2023-02-28T14:48:27;101609.28;;;11.77;28.32
22206;BME280;11272;50.104;8.754;2023-02-28T14:50:56;101609.34;;;11.68;28.57
22206;BME280;11272;50.104;8.754;2023-02-28T14:53:26;101610.25;;;11.61;29.06
22206;BME280;11272;50.104;8.754;2023-02-28T14:55:52;101604.06;;;11.62;28.84
22206;BME280;11272;50.104;8.754;2023-02-28T14:58:24;101604.06;;;11.62;29.15
22206;BME280;11272;50.104;8.754;2023-02-28T15:00:52;101605.94;;;11.47;29.40
22206;BME280;11272;50.104;8.754;2023-02-28T15:03:23;101610.41;;;11.42;29.34
22206;BME280;11272;50.104;8.754;2023-02-28T15:06:00;101603.28;;;11.44;29.64
22206;BME280;11272;50.104;8.754;2023-02-28T15:08:29;101604.97;;;11.57;29.53
22206;BME280;11272;50.104;8.754;2023-02-28T15:11:02;101611.16;;;11.60;29.67
22206;BME280;11272;50.104;8.754;2023-02-28T15:13:42;101602.34;;;11.49;29.37
22206;BME280;11272;50.104;8.754;2023-02-28T15:19:04;101604.41;;;10.97;30.48
22206;BME280;11272;50.104;8.754;2023-02-28T15:21:39;101596.47;;;10.94;30.41